sensor_id;sensor_type;location;lat;lon;timestamp;P1;durP1;ratioP1;P2;durP2;ratioP2
6973;SDS011;3527;52.376;8.990;2023-04-15T00:01:37;10.37;;;7.40;;
6973;SDS011;3527;52.376;8.990;2023-04-15T00:04:04;10.17;;;7.83;;
6973;SDS011;3527;52.376;8.990;2023-04-15T00:06:30;9.87;;;7.23;;
6973;SDS011;3527;52.376;8.990;2023-04-15T00:08:57;10.07;;;7.27;;
6973;SDS011;3527;52.376;8.990;2023-04-15T00:11:24;12.13;;;8.00;;
6973;SDS011;3527;52.376;8.990;2023-04-15T00:13:51;12.03;;;7.87;;
6973;SDS011;3527;52.376;8.990;2023-04-15T00:16:18;12.67;;;7.63;;
6973;SDS011;3527;52.376;8.990;2023-04-15T00:18:44;12.50;;;7.90;;
6973;SDS011;3527;52.376;8.990;2023-04-15T00:21:11;10.83;;;7.93;;
6973;SDS011;3527;52.376;8.990;2023-04-15T00:23:37;9.77;;;7.50;;
6973;SDS011;3527;52.376;8.990;2023-04-15T00:26:04;9.70;;;7.17;;
6973;SDS011;3527;52.376;8.990;2023-04-15T00:28:30;11.60;;;7.37;;
6973;SDS011;3527;52.376;8.990;2023-04-15T00:30:57;9.53;;;6.80;;
6973;SDS011;3527;52.376;8.990;2023-04-15T00:33:24;9.37;;;6.50;;
6973;SDS011;3527;52.376;8.990;2023-04-15T00:35:51;8.93;;;6.80;;
6973;SDS011;3527;52.376;8.990;2023-04-15T00:38:17;8.40;;;6.80;;
6973;SDS011;3527;52.376;8.990;2023-04-15T00:40:44;10.23;;;7.30;;
6973;SDS011;3527;52.376;8.990;2023-04-15T00:43:11;8.37;;;6.80;;
6973;SDS011;3527;52.376;8.990;2023-04-15T00:45:38;10.10;;;6.63;;
6973;SDS011;3527;52.376;8.990;2023-04-15T00:48:04;10.47;;;6.87;;
6973;SDS011;3527;52.376;8.990;2023-04-15T00:50:32;9.17;;;6.87;;
6973;SDS011;3527;52.376;8.990;2023-04-15T00:52:58;9.77;;;6.90;;
6973;SDS011;3527;52.376;8.990;2023-04-15T00:55:25;9.40;;;7.33;;
6973;SDS011;3527;52.376;8.990;2023-04-15T00:57:52;11.10;;;7.30;;
6973;SDS011;3527;52.376;8.990;2023-04-15T01:00:19;11.13;;;6.93;;
6973;SDS011;3527;52.376;8.990;2023-04-15T01:02:45;10.83;;;7.47;;
6973;SDS011;3527;52.376;8.990;2023-04-15T01:05:13;9.40;;;7.23;;
6973;SDS011;3527;52.376;8.990;2023-04-15T01:07:42;8.20;;;7.13;;
6973;SDS011;3527;52.376;8.990;2023-04-15T01:10:09;10.10;;;7.03;;
6973;SDS011;3527;52.376;8.990;2023-04-15T01:12:35;10.13;;;7.07;;
6973;SDS011;3527;52.376;8.990;2023-04-15T01:15:03;9.90;;;7.10;;
6973;SDS011;3527;52.376;8.990;2023-04-15T01:17:29;9.67;;;7.20;;
6973;SDS011;3527;52.376;8.990;2023-04-15T01:19:56;9.73;;;7.20;;
6973;SDS011;3527;52.376;8.990;2023-04-15T01:22:23;10.83;;;7.43;;
6973;SDS011;3527;52.376;8.990;2023-04-15T01:27:48;9.77;;;7.17;;
6973;SDS011;3527;52.376;8.990;2023-04-15T01:30:15;8.90;;;7.53;;
6973;SDS011;3527;52.376;8.990;2023-04-15T01:32:41;12.33;;;7.83;;
6973;SDS011;3527;52.376;8.990;2023-04-15T01:35:08;9.77;;;7.63;;
6973;SDS011;3527;52.376;8.990;2023-04-15T01:37:35;10.80;;;7.43;;
6973;SDS011;3527;52.376;8.990;2023-04-15T01:40:02;10.70;;;7.77;;
6973;SDS011;3527;52.376;8.990;2023-04-15T01:42:28;10.20;;;7.70;;
6973;SDS011;3527;52.376;8.990;2023-04-15T01:44:55;11.17;;;8.13;;
6973;SDS011;3527;52.376;8.990;2023-04-15T01:47:22;11.60;;;8.20;;
6973;SDS011;3527;52.376;8.990;2023-04-15T01:49:49;11.93;;;8.97;;
6973;SDS011;3527;52.376;8.990;2023-04-15T01:52:15;10.87;;;7.93;;
6973;SDS011;3527;52.376;8.990;2023-04-15T01:54:42;10.10;;;8.07;;
6973;SDS011;3527;52.376;8.990;2023-04-15T01:57:08;10.53;;;8.37;;
6973;SDS011;3527;52.376;8.990;2023-04-15T01:59:35;11.33;;;8.10;;
6973;SDS011;3527;52.376;8.990;2023-04-15T02:02:02;12.13;;;9.00;;
6973;SDS011;3527;52.376;8.990;2023-04-15T02:04:30;11.47;;;8.17;;
6973;SDS011;3527;52.376;8.990;2023-04-15T02:06:57;11.13;;;8.10;;
6973;SDS011;3527;52.376;8.990;2023-04-15T02:09:23;14.53;;;9.43;;
6973;SDS011;3527;52.376;8.990;2023-04-15T02:11:50;13.40;;;9.23;;
6973;SDS011;3527;52.376;8.990;2023-04-15T02:14:18;11.67;;;8.90;;
6973;SDS011;3527;52.376;8.990;2023-04-15T02:16:45;12.30;;;9.20;;
6973;SDS011;3527;52.376;8.990;2023-04-15T02:19:11;12.87;;;9.33;;
6973;SDS011;3527;52.376;8.990;2023-04-15T02:21:39;12.27;;;9.00;;
6973;SDS011;3527;52.376;8.990;2023-04-15T02:24:06;13.53;;;9.77;;
6973;SDS011;3527;52.376;8.990;2023-04-15T02:26:32;11.43;;;8.27;;
6973;SDS011;3527;52.376;8.990;2023-04-15T02:28:59;14.23;;;10.17;;
6973;SDS011;3527;52.376;8.990;2023-04-15T02:31:26;11.50;;;9.00;;
6973;SDS011;3527;52.376;8.990;2023-04-15T02:33:53;13.77;;;9.50;;
6973;SDS011;3527;52.376;8.990;2023-04-15T02:36:19;15.87;;;10.40;;
6973;SDS011;3527;52.376;8.990;2023-04-15T02:38:46;13.23;;;9.70;;
6973;SDS011;3527;52.376;8.990;2023-04-15T02:41:13;12.17;;;9.50;;
6973;SDS011;3527;52.376;8.990;2023-04-15T02:43:39;14.23;;;10.00;;
6973;SDS011;3527;52.376;8.990;2023-04-15T02:46:06;15.80;;;10.57;;
6973;SDS011;3527;52.376;8.990;2023-04-15T02:48:33;14.60;;;10.47;;
6973;SDS011;3527;52.376;8.990;2023-04-15T02:53:38;14.80;;;10.60;;
6973;SDS011;3527;52.376;8.990;2023-04-15T02:56:05;14.10;;;10.33;;
6973;SDS011;3527;52.376;8.990;2023-04-15T02:58:32;16.23;;;11.23;;
6973;SDS011;3527;52.376;8.990;2023-04-15T03:01:00;16.90;;;11.33;;
6973;SDS011;3527;52.376;8.990;2023-04-15T03:03:26;15.53;;;11.23;;
6973;SDS011;3527;52.376;8.990;2023-04-15T03:05:54;19.10;;;12.70;;
6973;SDS011;3527;52.376;8.990;2023-04-15T03:08:20;19.50;;;12.77;;
6973;SDS011;3527;52.376;8.990;2023-04-15T03:10:47;18.77;;;12.73;;
6973;SDS011;3527;52.376;8.990;2023-04-15T03:13:14;22.43;;;13.97;;
6973;SDS011;3527;52.376;8.990;2023-04-15T03:15:40;18.17;;;12.33;;
6973;SDS011;3527;52.376;8.990;2023-04-15T03:18:07;18.97;;;12.70;;
6973;SDS011;3527;52.376;8.990;2023-04-15T03:20:34;20.27;;;13.90;;
6973;SDS011;3527;52.376;8.990;2023-04-15T03:23:01;17.57;;;11.47;;
6973;SDS011;3527;52.376;8.990;2023-04-15T03:25:28;17.57;;;12.27;;
6973;SDS011;3527;52.376;8.990;2023-04-15T03:27:55;19.50;;;12.70;;
6973;SDS011;3527;52.376;8.990;2023-04-15T03:30:22;18.23;;;13.00;;
6973;SDS011;3527;52.376;8.990;2023-04-15T03:32:48;18.23;;;13.30;;
6973;SDS011;3527;52.376;8.990;2023-04-15T03:35:15;18.57;;;13.50;;
6973;SDS011;3527;52.376;8.990;2023-04-15T03:37:41;21.63;;;14.17;;
6973;SDS011;3527;52.376;8.990;2023-04-15T03:40:08;21.37;;;14.30;;
6973;SDS011;3527;52.376;8.990;2023-04-15T03:42:35;24.03;;;15.00;;
6973;SDS011;3527;52.376;8.990;2023-04-15T03:45:01;24.47;;;15.13;;
6973;SDS011;3527;52.376;8.990;2023-04-15T03:47:28;21.13;;;13.90;;
6973;SDS011;3527;52.376;8.990;2023-04-15T03:49:55;17.87;;;12.87;;
6973;SDS011;3527;52.376;8.990;2023-04-15T03:52:22;20.50;;;14.73;;
6973;SDS011;3527;52.376;8.990;2023-04-15T03:54:48;21.63;;;15.47;;
6973;SDS011;3527;52.376;8.990;2023-04-15T03:57:15;21.33;;;14.50;;
6973;SDS011;3527;52.376;8.990;2023-04-15T03:59:42;23.90;;;16.27;;
6973;SDS011;3527;52.376;8.990;2023-04-15T04:02:09;22.87;;;14.83;;
6973;SDS011;3527;52.376;8.990;2023-04-15T04:04:35;25.40;;;16.90;;
6973;SDS011;3527;52.376;8.990;2023-04-15T04:07:02;24.37;;;15.67;;
6973;SDS011;3527;52.376;8.990;2023-04-15T04:09:29;26.13;;;16.13;;
6973;SDS011;3527;52.376;8.990;2023-04-15T04:11:56;27.00;;;16.83;;
6973;SDS011;3527;52.376;8.990;2023-04-15T04:14:43;26.63;;;16.77;;
6973;SDS011;3527;52.376;8.990;2023-04-15T04:17:30;27.93;;;15.80;;
6973;SDS011;3527;52.376;8.990;2023-04-15T04:20:16;26.87;;;17.17;;
6973;SDS011;3527;52.376;8.990;2023-04-15T04:22:48;24.03;;;15.97;;
6973;SDS011;3527;52.376;8.990;2023-04-15T04:25:26;27.70;;;17.67;;
6973;SDS011;3527;52.376;8.990;2023-04-15T04:28:12;24.90;;;16.37;;
6973;SDS011;3527;52.376;8.990;2023-04-15T04:30:42;25.00;;;16.60;;
6973;SDS011;3527;52.376;8.990;2023-04-15T04:33:08;24.97;;;16.43;;
6973;SDS011;3527;52.376;8.990;2023-04-15T04:35:35;22.67;;;15.73;;
6973;SDS011;3527;52.376;8.990;2023-04-15T04:38:03;24.83;;;16.03;;
6973;SDS011;3527;52.376;8.990;2023-04-15T04:40:29;25.93;;;16.50;;
6973;SDS011;3527;52.376;8.990;2023-04-15T04:42:56;22.07;;;15.40;;
6973;SDS011;3527;52.376;8.990;2023-04-15T04:45:23;27.50;;;17.73;;
6973;SDS011;3527;52.376;8.990;2023-04-15T04:47:49;23.53;;;16.13;;
6973;SDS011;3527;52.376;8.990;2023-04-15T04:50:16;26.33;;;17.50;;
6973;SDS011;3527;52.376;8.990;2023-04-15T04:52:43;26.33;;;16.70;;
6973;SDS011;3527;52.376;8.990;2023-04-15T04:55:09;27.20;;;17.00;;
6973;SDS011;3527;52.376;8.990;2023-04-15T04:57:36;24.73;;;15.87;;
6973;SDS011;3527;52.376;8.990;2023-04-15T05:00:05;25.60;;;15.63;;
6973;SDS011;3527;52.376;8.990;2023-04-15T05:02:33;25.87;;;16.90;;
6973;SDS011;3527;52.376;8.990;2023-04-15T05:05:00;25.93;;;15.60;;
6973;SDS011;3527;52.376;8.990;2023-04-15T05:07:27;24.37;;;16.67;;
6973;SDS011;3527;52.376;8.990;2023-04-15T05:09:53;21.47;;;15.03;;
6973;SDS011;3527;52.376;8.990;2023-04-15T05:12:20;22.67;;;16.23;;
6973;SDS011;3527;52.376;8.990;2023-04-15T05:14:46;22.60;;;15.27;;
6973;SDS011;3527;52.376;8.990;2023-04-15T05:17:13;23.60;;;15.60;;
6973;SDS011;3527;52.376;8.990;2023-04-15T05:19:40;25.37;;;15.83;;
6973;SDS011;3527;52.376;8.990;2023-04-15T05:22:07;22.43;;;14.73;;
6973;SDS011;3527;52.376;8.990;2023-04-15T05:24:33;23.80;;;16.20;;
6973;SDS011;3527;52.376;8.990;2023-04-15T05:27:00;25.10;;;16.43;;
6973;SDS011;3527;52.376;8.990;2023-04-15T05:29:27;25.33;;;16.10;;
6973;SDS011;3527;52.376;8.990;2023-04-15T05:31:54;23.10;;;15.53;;
6973;SDS011;3527;52.376;8.990;2023-04-15T05:34:21;24.63;;;15.73;;
6973;SDS011;3527;52.376;8.990;2023-04-15T05:36:48;27.97;;;17.00;;
6973;SDS011;3527;52.376;8.990;2023-04-15T05:39:14;25.90;;;16.80;;
6973;SDS011;3527;52.376;8.990;2023-04-15T05:41:41;29.70;;;17.53;;
6973;SDS011;3527;52.376;8.990;2023-04-15T05:44:07;25.07;;;16.67;;
6973;SDS011;3527;52.376;8.990;2023-04-15T05:46:34;30.57;;;17.10;;
6973;SDS011;3527;52.376;8.990;2023-04-15T05:49:01;25.97;;;17.20;;
6973;SDS011;3527;52.376;8.990;2023-04-15T05:51:28;26.97;;;16.73;;
6973;SDS011;3527;52.376;8.990;2023-04-15T05:53:54;28.03;;;17.77;;
6973;SDS011;3527;52.376;8.990;2023-04-15T05:56:21;28.00;;;17.53;;
6973;SDS011;3527;52.376;8.990;2023-04-15T05:58:48;29.23;;;17.20;;
6973;SDS011;3527;52.376;8.990;2023-04-15T06:01:16;27.37;;;17.83;;
6973;SDS011;3527;52.376;8.990;2023-04-15T06:03:43;27.27;;;17.50;;
6973;SDS011;3527;52.376;8.990;2023-04-15T06:06:10;27.50;;;17.90;;
6973;SDS011;3527;52.376;8.990;2023-04-15T06:08:37;28.03;;;17.83;;
6973;SDS011;3527;52.376;8.990;2023-04-15T06:11:03;27.93;;;18.37;;
6973;SDS011;3527;52.376;8.990;2023-04-15T06:13:30;28.23;;;18.33;;
6973;SDS011;3527;52.376;8.990;2023-04-15T06:15:56;32.57;;;20.50;;
6973;SDS011;3527;52.376;8.990;2023-04-15T06:18:23;31.50;;;19.33;;
6973;SDS011;3527;52.376;8.990;2023-04-15T06:20:50;34.60;;;18.97;;
6973;SDS011;3527;52.376;8.990;2023-04-15T06:23:17;35.13;;;20.20;;
6973;SDS011;3527;52.376;8.990;2023-04-15T06:25:43;33.57;;;20.87;;
6973;SDS011;3527;52.376;8.990;2023-04-15T06:28:10;33.37;;;20.13;;
6973;SDS011;3527;52.376;8.990;2023-04-15T06:30:37;31.13;;;19.97;;
6973;SDS011;3527;52.376;8.990;2023-04-15T06:33:04;35.40;;;20.73;;
6973;SDS011;3527;52.376;8.990;2023-04-15T06:35:31;34.27;;;20.53;;
6973;SDS011;3527;52.376;8.990;2023-04-15T06:37:58;32.73;;;19.83;;
6973;SDS011;3527;52.376;8.990;2023-04-15T06:40:24;35.00;;;21.03;;
6973;SDS011;3527;52.376;8.990;2023-04-15T06:42:51;31.57;;;20.57;;
6973;SDS011;3527;52.376;8.990;2023-04-15T06:45:17;33.20;;;21.30;;
6973;SDS011;3527;52.376;8.990;2023-04-15T06:47:44;33.97;;;20.73;;
6973;SDS011;3527;52.376;8.990;2023-04-15T06:50:11;34.83;;;20.77;;
6973;SDS011;3527;52.376;8.990;2023-04-15T06:52:37;34.87;;;22.03;;
6973;SDS011;3527;52.376;8.990;2023-04-15T06:55:04;33.07;;;20.57;;
6973;SDS011;3527;52.376;8.990;2023-04-15T06:57:32;33.90;;;20.27;;
6973;SDS011;3527;52.376;8.990;2023-04-15T07:00:00;33.67;;;20.77;;
6973;SDS011;3527;52.376;8.990;2023-04-15T07:02:27;31.77;;;20.30;;
6973;SDS011;3527;52.376;8.990;2023-04-15T07:04:53;34.50;;;21.13;;
6973;SDS011;3527;52.376;8.990;2023-04-15T07:07:20;33.93;;;21.77;;
6973;SDS011;3527;52.376;8.990;2023-04-15T07:09:47;35.30;;;20.93;;
6973;SDS011;3527;52.376;8.990;2023-04-15T07:12:14;35.67;;;21.83;;
6973;SDS011;3527;52.376;8.990;2023-04-15T07:14:40;36.43;;;21.80;;
6973;SDS011;3527;52.376;8.990;2023-04-15T07:17:07;36.50;;;21.20;;
6973;SDS011;3527;52.376;8.990;2023-04-15T07:19:34;38.80;;;22.23;;
6973;SDS011;3527;52.376;8.990;2023-04-15T07:22:01;39.03;;;22.90;;
6973;SDS011;3527;52.376;8.990;2023-04-15T07:24:27;37.87;;;22.87;;
6973;SDS011;3527;52.376;8.990;2023-04-15T07:26:54;38.37;;;21.40;;
6973;SDS011;3527;52.376;8.990;2023-04-15T07:29:26;39.60;;;22.20;;
6973;SDS011;3527;52.376;8.990;2023-04-15T07:31:53;40.67;;;23.73;;
6973;SDS011;3527;52.376;8.990;2023-04-15T07:34:19;38.23;;;23.47;;
6973;SDS011;3527;52.376;8.990;2023-04-15T07:36:46;40.40;;;25.17;;
6973;SDS011;3527;52.376;8.990;2023-04-15T07:39:16;39.53;;;23.77;;
6973;SDS011;3527;52.376;8.990;2023-04-15T07:41:42;41.53;;;24.13;;
6973;SDS011;3527;52.376;8.990;2023-04-15T07:44:10;41.93;;;24.13;;
6973;SDS011;3527;52.376;8.990;2023-04-15T07:46:36;38.37;;;24.17;;
6973;SDS011;3527;52.376;8.990;2023-04-15T07:49:04;41.30;;;24.70;;
6973;SDS011;3527;52.376;8.990;2023-04-15T07:51:30;43.70;;;24.00;;
6973;SDS011;3527;52.376;8.990;2023-04-15T07:53:57;42.77;;;23.73;;
6973;SDS011;3527;52.376;8.990;2023-04-15T07:56:24;42.17;;;24.23;;
6973;SDS011;3527;52.376;8.990;2023-04-15T07:58:52;42.93;;;25.07;;
6973;SDS011;3527;52.376;8.990;2023-04-15T08:01:18;40.90;;;23.87;;
6973;SDS011;3527;52.376;8.990;2023-04-15T08:03:45;46.33;;;24.87;;
6973;SDS011;3527;52.376;8.990;2023-04-15T08:06:12;41.03;;;24.60;;
6973;SDS011;3527;52.376;8.990;2023-04-15T08:08:39;42.67;;;24.20;;
6973;SDS011;3527;52.376;8.990;2023-04-15T08:11:06;41.77;;;24.47;;
6973;SDS011;3527;52.376;8.990;2023-04-15T08:13:32;39.83;;;23.37;;
6973;SDS011;3527;52.376;8.990;2023-04-15T08:18:45;41.87;;;23.73;;
6973;SDS011;3527;52.376;8.990;2023-04-15T08:21:12;44.10;;;24.33;;
6973;SDS011;3527;52.376;8.990;2023-04-15T08:23:38;43.77;;;24.90;;
6973;SDS011;3527;52.376;8.990;2023-04-15T08:26:05;43.00;;;24.07;;
6973;SDS011;3527;52.376;8.990;2023-04-15T08:28:33;42.27;;;23.93;;
6973;SDS011;3527;52.376;8.990;2023-04-15T08:31:00;41.67;;;23.73;;
6973;SDS011;3527;52.376;8.990;2023-04-15T08:33:27;40.83;;;22.97;;
6973;SDS011;3527;52.376;8.990;2023-04-15T08:35:54;38.77;;;22.07;;
6973;SDS011;3527;52.376;8.990;2023-04-15T08:38:20;37.27;;;22.33;;
6973;SDS011;3527;52.376;8.990;2023-04-15T08:40:48;37.80;;;22.77;;
6973;SDS011;3527;52.376;8.990;2023-04-15T08:43:18;41.43;;;24.27;;
6973;SDS011;3527;52.376;8.990;2023-04-15T08:45:46;38.77;;;22.03;;
6973;SDS011;3527;52.376;8.990;2023-04-15T08:48:15;39.67;;;23.47;;
6973;SDS011;3527;52.376;8.990;2023-04-15T08:50:42;37.57;;;22.63;;
6973;SDS011;3527;52.376;8.990;2023-04-15T08:53:09;35.73;;;22.13;;
6973;SDS011;3527;52.376;8.990;2023-04-15T08:55:38;36.10;;;22.47;;
6973;SDS011;3527;52.376;8.990;2023-04-15T08:58:05;34.43;;;21.73;;
6973;SDS011;3527;52.376;8.990;2023-04-15T09:00:32;42.40;;;22.43;;
6973;SDS011;3527;52.376;8.990;2023-04-15T09:02:59;36.03;;;21.33;;
6973;SDS011;3527;52.376;8.990;2023-04-15T09:05:26;35.60;;;21.50;;
6973;SDS011;3527;52.376;8.990;2023-04-15T09:07:52;38.47;;;22.30;;
6973;SDS011;3527;52.376;8.990;2023-04-15T09:10:19;34.17;;;20.47;;
6973;SDS011;3527;52.376;8.990;2023-04-15T09:12:46;33.83;;;20.53;;
6973;SDS011;3527;52.376;8.990;2023-04-15T09:15:12;34.70;;;20.43;;
6973;SDS011;3527;52.376;8.990;2023-04-15T09:17:42;34.40;;;21.10;;
6973;SDS011;3527;52.376;8.990;2023-04-15T09:20:13;31.27;;;20.23;;
6973;SDS011;3527;52.376;8.990;2023-04-15T09:22:41;32.97;;;21.07;;
6973;SDS011;3527;52.376;8.990;2023-04-15T09:27:48;33.47;;;19.73;;
6973;SDS011;3527;52.376;8.990;2023-04-15T09:30:15;27.50;;;18.20;;
6973;SDS011;3527;52.376;8.990;2023-04-15T09:32:48;30.97;;;19.97;;
6973;SDS011;3527;52.376;8.990;2023-04-15T09:35:16;30.03;;;19.73;;
6973;SDS011;3527;52.376;8.990;2023-04-15T09:37:42;30.73;;;18.93;;
6973;SDS011;3527;52.376;8.990;2023-04-15T09:40:09;28.70;;;19.43;;
6973;SDS011;3527;52.376;8.990;2023-04-15T09:42:36;26.57;;;18.70;;
6973;SDS011;3527;52.376;8.990;2023-04-15T09:45:09;26.93;;;17.97;;
6973;SDS011;3527;52.376;8.990;2023-04-15T09:47:37;28.83;;;18.30;;
6973;SDS011;3527;52.376;8.990;2023-04-15T09:50:04;27.70;;;18.40;;
6973;SDS011;3527;52.376;8.990;2023-04-15T09:52:30;27.63;;;18.73;;
6973;SDS011;3527;52.376;8.990;2023-04-15T09:54:57;26.37;;;18.50;;
6973;SDS011;3527;52.376;8.990;2023-04-15T09:57:25;26.23;;;17.67;;
6973;SDS011;3527;52.376;8.990;2023-04-15T09:59:58;24.17;;;17.10;;
6973;SDS011;3527;52.376;8.990;2023-04-15T10:02:25;25.63;;;18.00;;
6973;SDS011;3527;52.376;8.990;2023-04-15T10:04:52;25.40;;;17.27;;
6973;SDS011;3527;52.376;8.990;2023-04-15T10:07:20;24.17;;;16.90;;
6973;SDS011;3527;52.376;8.990;2023-04-15T10:09:47;24.90;;;17.97;;
6973;SDS011;3527;52.376;8.990;2023-04-15T10:12:16;22.73;;;16.80;;
6973;SDS011;3527;52.376;8.990;2023-04-15T10:14:43;22.57;;;15.83;;
6973;SDS011;3527;52.376;8.990;2023-04-15T10:17:10;21.10;;;16.07;;
6973;SDS011;3527;52.376;8.990;2023-04-15T10:19:38;22.20;;;16.03;;
6973;SDS011;3527;52.376;8.990;2023-04-15T10:22:05;22.00;;;16.07;;
6973;SDS011;3527;52.376;8.990;2023-04-15T10:24:33;20.67;;;16.00;;
6973;SDS011;3527;52.376;8.990;2023-04-15T10:26:59;20.73;;;16.33;;
6973;SDS011;3527;52.376;8.990;2023-04-15T10:29:29;23.13;;;16.50;;
6973;SDS011;3527;52.376;8.990;2023-04-15T10:31:56;20.43;;;15.63;;
6973;SDS011;3527;52.376;8.990;2023-04-15T10:34:24;22.47;;;16.40;;
6973;SDS011;3527;52.376;8.990;2023-04-15T10:36:54;21.07;;;16.23;;
6973;SDS011;3527;52.376;8.990;2023-04-15T10:42:11;20.53;;;15.97;;
6973;SDS011;3527;52.376;8.990;2023-04-15T10:44:38;18.43;;;14.83;;
6973;SDS011;3527;52.376;8.990;2023-04-15T10:47:11;21.53;;;16.00;;
6973;SDS011;3527;52.376;8.990;2023-04-15T10:49:50;20.90;;;15.53;;
6973;SDS011;3527;52.376;8.990;2023-04-15T10:52:22;22.43;;;16.37;;
6973;SDS011;3527;52.376;8.990;2023-04-15T10:54:49;20.10;;;15.03;;
6973;SDS011;3527;52.376;8.990;2023-04-15T10:57:20;18.47;;;14.13;;
6973;SDS011;3527;52.376;8.990;2023-04-15T11:02:40;16.87;;;13.77;;
6973;SDS011;3527;52.376;8.990;2023-04-15T11:05:07;19.90;;;15.23;;
6973;SDS011;3527;52.376;8.990;2023-04-15T11:08:08;19.73;;;14.83;;
6973;SDS011;3527;52.376;8.990;2023-04-15T11:12:58;18.23;;;13.97;;
6973;SDS011;3527;52.376;8.990;2023-04-15T11:15:32;19.70;;;15.03;;
6973;SDS011;3527;52.376;8.990;2023-04-15T11:18:18;19.57;;;14.83;;
6973;SDS011;3527;52.376;8.990;2023-04-15T11:20:55;19.40;;;14.93;;
6973;SDS011;3527;52.376;8.990;2023-04-15T11:23:30;20.07;;;14.07;;
6973;SDS011;3527;52.376;8.990;2023-04-15T11:25:57;19.07;;;14.37;;
6973;SDS011;3527;52.376;8.990;2023-04-15T11:28:28;19.03;;;14.27;;
6973;SDS011;3527;52.376;8.990;2023-04-15T11:30:55;20.10;;;15.03;;
6973;SDS011;3527;52.376;8.990;2023-04-15T11:33:22;20.43;;;15.33;;
6973;SDS011;3527;52.376;8.990;2023-04-15T11:35:50;21.40;;;15.57;;
6973;SDS011;3527;52.376;8.990;2023-04-15T11:38:18;21.50;;;15.57;;
6973;SDS011;3527;52.376;8.990;2023-04-15T11:40:45;23.93;;;17.30;;
6973;SDS011;3527;52.376;8.990;2023-04-15T11:43:19;25.13;;;17.20;;
6973;SDS011;3527;52.376;8.990;2023-04-15T11:45:47;23.97;;;16.77;;
6973;SDS011;3527;52.376;8.990;2023-04-15T11:48:14;24.63;;;16.83;;
6973;SDS011;3527;52.376;8.990;2023-04-15T11:50:40;23.40;;;17.00;;
6973;SDS011;3527;52.376;8.990;2023-04-15T11:53:08;23.87;;;17.83;;
6973;SDS011;3527;52.376;8.990;2023-04-15T11:55:42;23.03;;;16.63;;
6973;SDS011;3527;52.376;8.990;2023-04-15T11:58:11;24.47;;;18.20;;
6973;SDS011;3527;52.376;8.990;2023-04-15T12:00:40;25.40;;;17.90;;
6973;SDS011;3527;52.376;8.990;2023-04-15T12:03:11;24.87;;;18.03;;
6973;SDS011;3527;52.376;8.990;2023-04-15T12:08:23;29.73;;;21.60;;
6973;SDS011;3527;52.376;8.990;2023-04-15T12:10:50;32.43;;;21.57;;
6973;SDS011;3527;52.376;8.990;2023-04-15T12:13:17;32.30;;;21.87;;
6973;SDS011;3527;52.376;8.990;2023-04-15T12:15:44;31.40;;;21.27;;
6973;SDS011;3527;52.376;8.990;2023-04-15T12:18:17;28.73;;;20.20;;
6973;SDS011;3527;52.376;8.990;2023-04-15T12:20:44;31.50;;;22.23;;
6973;SDS011;3527;52.376;8.990;2023-04-15T12:23:11;31.77;;;21.87;;
6973;SDS011;3527;52.376;8.990;2023-04-15T12:25:37;33.23;;;22.13;;
6973;SDS011;3527;52.376;8.990;2023-04-15T12:28:10;34.10;;;22.83;;
6973;SDS011;3527;52.376;8.990;2023-04-15T12:30:47;33.50;;;22.80;;
6973;SDS011;3527;52.376;8.990;2023-04-15T12:33:14;30.33;;;21.67;;
6973;SDS011;3527;52.376;8.990;2023-04-15T12:35:40;34.30;;;23.00;;
6973;SDS011;3527;52.376;8.990;2023-04-15T12:38:07;32.77;;;21.80;;
6973;SDS011;3527;52.376;8.990;2023-04-15T12:40:36;33.20;;;22.63;;
6973;SDS011;3527;52.376;8.990;2023-04-15T12:43:02;33.30;;;22.93;;
6973;SDS011;3527;52.376;8.990;2023-04-15T12:45:29;35.03;;;24.40;;
6973;SDS011;3527;52.376;8.990;2023-04-15T12:47:56;32.70;;;23.10;;
6973;SDS011;3527;52.376;8.990;2023-04-15T12:50:22;33.03;;;22.43;;
6973;SDS011;3527;52.376;8.990;2023-04-15T12:52:49;34.20;;;23.37;;
6973;SDS011;3527;52.376;8.990;2023-04-15T12:55:16;34.43;;;23.50;;
6973;SDS011;3527;52.376;8.990;2023-04-15T12:57:43;36.70;;;24.17;;
6973;SDS011;3527;52.376;8.990;2023-04-15T13:00:10;36.83;;;24.23;;
6973;SDS011;3527;52.376;8.990;2023-04-15T13:02:37;35.90;;;23.73;;
6973;SDS011;3527;52.376;8.990;2023-04-15T13:05:04;36.23;;;24.83;;
6973;SDS011;3527;52.376;8.990;2023-04-15T13:07:31;35.53;;;24.17;;
6973;SDS011;3527;52.376;8.990;2023-04-15T13:09:57;34.67;;;23.00;;
6973;SDS011;3527;52.376;8.990;2023-04-15T13:12:24;37.57;;;24.07;;
6973;SDS011;3527;52.376;8.990;2023-04-15T13:14:50;38.07;;;24.13;;
6973;SDS011;3527;52.376;8.990;2023-04-15T13:17:17;38.33;;;24.67;;
6973;SDS011;3527;52.376;8.990;2023-04-15T13:19:45;39.63;;;26.33;;
6973;SDS011;3527;52.376;8.990;2023-04-15T13:22:12;40.43;;;25.37;;
6973;SDS011;3527;52.376;8.990;2023-04-15T13:24:40;37.90;;;24.70;;
6973;SDS011;3527;52.376;8.990;2023-04-15T13:27:06;37.60;;;25.33;;
6973;SDS011;3527;52.376;8.990;2023-04-15T13:29:33;37.73;;;25.00;;
6973;SDS011;3527;52.376;8.990;2023-04-15T13:32:00;40.87;;;25.20;;
6973;SDS011;3527;52.376;8.990;2023-04-15T13:34:27;39.43;;;24.07;;
6973;SDS011;3527;52.376;8.990;2023-04-15T13:36:53;39.40;;;24.50;;
6973;SDS011;3527;52.376;8.990;2023-04-15T13:39:20;43.97;;;24.77;;
6973;SDS011;3527;52.376;8.990;2023-04-15T13:41:46;39.33;;;23.83;;
6973;SDS011;3527;52.376;8.990;2023-04-15T13:44:13;37.03;;;24.30;;
6973;SDS011;3527;52.376;8.990;2023-04-15T13:46:40;40.30;;;25.43;;
6973;SDS011;3527;52.376;8.990;2023-04-15T13:49:10;37.57;;;24.73;;
6973;SDS011;3527;52.376;8.990;2023-04-15T13:51:36;42.37;;;24.70;;
6973;SDS011;3527;52.376;8.990;2023-04-15T13:54:03;40.87;;;25.27;;
6973;SDS011;3527;52.376;8.990;2023-04-15T13:56:31;41.97;;;24.37;;
6973;SDS011;3527;52.376;8.990;2023-04-15T13:58:59;46.53;;;26.23;;
6973;SDS011;3527;52.376;8.990;2023-04-15T14:01:28;43.50;;;25.33;;
6973;SDS011;3527;52.376;8.990;2023-04-15T14:03:56;39.67;;;24.47;;
6973;SDS011;3527;52.376;8.990;2023-04-15T14:06:23;45.27;;;27.07;;
6973;SDS011;3527;52.376;8.990;2023-04-15T14:08:52;41.87;;;25.53;;
6973;SDS011;3527;52.376;8.990;2023-04-15T14:11:19;48.97;;;27.77;;
6973;SDS011;3527;52.376;8.990;2023-04-15T14:13:47;49.80;;;28.13;;
6973;SDS011;3527;52.376;8.990;2023-04-15T14:16:15;49.27;;;27.50;;
6973;SDS011;3527;52.376;8.990;2023-04-15T14:18:46;50.63;;;27.43;;
6973;SDS011;3527;52.376;8.990;2023-04-15T14:21:14;50.23;;;28.00;;
6973;SDS011;3527;52.376;8.990;2023-04-15T14:23:42;57.17;;;28.97;;
6973;SDS011;3527;52.376;8.990;2023-04-15T14:26:10;50.70;;;29.30;;
6973;SDS011;3527;52.376;8.990;2023-04-15T14:28:39;56.60;;;30.03;;
6973;SDS011;3527;52.376;8.990;2023-04-15T14:31:07;50.20;;;29.87;;
6973;SDS011;3527;52.376;8.990;2023-04-15T14:33:34;51.90;;;29.77;;
6973;SDS011;3527;52.376;8.990;2023-04-15T14:36:02;54.97;;;31.30;;
6973;SDS011;3527;52.376;8.990;2023-04-15T14:38:30;55.07;;;32.03;;
6973;SDS011;3527;52.376;8.990;2023-04-15T14:40:59;62.83;;;32.73;;
6973;SDS011;3527;52.376;8.990;2023-04-15T14:43:26;57.83;;;32.83;;
6973;SDS011;3527;52.376;8.990;2023-04-15T14:45:53;62.53;;;32.97;;
6973;SDS011;3527;52.376;8.990;2023-04-15T14:48:20;59.37;;;32.07;;
6973;SDS011;3527;52.376;8.990;2023-04-15T14:50:47;59.50;;;31.90;;
6973;SDS011;3527;52.376;8.990;2023-04-15T14:53:13;54.00;;;30.13;;
6973;SDS011;3527;52.376;8.990;2023-04-15T14:55:40;55.47;;;31.87;;
6973;SDS011;3527;52.376;8.990;2023-04-15T14:58:07;53.77;;;31.23;;
6973;SDS011;3527;52.376;8.990;2023-04-15T15:00:34;51.23;;;30.77;;
6973;SDS011;3527;52.376;8.990;2023-04-15T15:03:04;55.00;;;31.90;;
6973;SDS011;3527;52.376;8.990;2023-04-15T15:05:38;52.07;;;31.07;;
6973;SDS011;3527;52.376;8.990;2023-04-15T15:08:06;56.37;;;31.97;;
6973;SDS011;3527;52.376;8.990;2023-04-15T15:10:33;55.83;;;32.40;;
6973;SDS011;3527;52.376;8.990;2023-04-15T15:13:15;55.37;;;31.80;;
6973;SDS011;3527;52.376;8.990;2023-04-15T15:15:42;56.17;;;32.67;;